EmailTwitter


Observations de surface / Québec / LFBZ

Régions: Québec | Canada | États-Unis | Europe | France | UK | Ailleurs
Station
Affichage
Infos & localisation pour LFBZ | Aide pour décoder les METARs

Observations prises le 2017-09-26 à 16H00 UTC à BIARRITZ/ANGLET, FR (LFBZ)

Température: 20.0 Celsius

Point de rosée: 12.0 Celsius

Humidité relative: 60%

Vents: Nord à 9 km/h ou 5 noeuds.

Pression au niveau moyen de la mer: 102.10 kilopascals.

Observation METAR:

LFBZ 261600Z AUTO 35005KT 320V080 CAVOK 20/12 Q1021 NOSIG=